Time;durP1;ratioP1;P1;durP2;ratioP2;P2;SDS_P1;SDS_P2;PMS_P1;PMS_P2;Temp;Humidity;BMP_temperature;BMP_pressure;BME280_temperature;BME280_humidity;BME280_pressure;Samples;Min_cycle;Max_cycle;Signal;HPM_P1;HPM_P2
2021/11/29 08:17:37;;;;;;;6.93;3.40;;;;;;;;;;5897393;23;20365;-53
2021/11/29 08:20:04;;;;;;;2.80;2.13;;;;;;;;;;4949833;29;20635;-50
2021/11/29 08:22:30;;;;;;;3.47;2.00;;;;;;;;;;4948506;29;20393;-47
2021/11/29 08:24:57;;;;;;;2.83;2.13;;;;;;;;;;4960040;28;20379;-55
2021/11/29 08:27:28;;;;;;;3.15;2.10;;;;;;;;;;4932158;29;20504;-49
2021/11/29 08:29:54;;;;;;;2.50;1.98;;;;;;;;;;4958170;28;20430;-48
2021/11/29 08:32:20;;;;;;;3.85;2.08;;;;;;;;;;4945888;28;20925;-47
2021/11/29 08:34:46;;;;;;;3.30;2.00;;;;;;;;;;4964773;28;20819;-46
2021/11/29 08:37:13;;;;;;;2.72;2.10;;;;;;;;;;4961119;28;20841;-44
2021/11/29 08:39:39;;;;;;;2.97;2.30;;;;;;;;;;4951897;28;20886;-44
2021/11/29 08:42:06;;;;;;;2.80;2.20;;;;;;;;;;4943699;28;20429;-47
2021/11/29 08:44:32;;;;;;;2.57;2.00;;;;;;;;;;4945334;29;20390;-48
2021/11/29 08:46:58;;;;;;;2.85;2.20;;;;;;;;;;4952099;28;20972;-49
2021/11/29 08:49:26;;;;;;;3.20;2.35;;;;;;;;;;4949720;28;20386;-48
2021/11/29 08:51:56;;;;;;;3.10;2.30;;;;;;;;;;4942210;28;20451;-47
2021/11/29 08:54:25;;;;;;;3.25;2.35;;;;;;;;;;4952178;28;20386;-48
2021/11/29 08:56:52;;;;;;;3.05;2.13;;;;;;;;;;4949908;28;20386;-52
2021/11/29 08:59:19;;;;;;;5.30;2.28;;;;;;;;;;4957780;28;20394;-47
2021/11/29 09:01:46;;;;;;;3.27;2.40;;;;;;;;;;4956074;28;20396;-49
2021/11/29 09:04:13;;;;;;;2.75;2.00;;;;;;;;;;4956945;28;20419;-54
2021/11/29 09:06:39;;;;;;;3.20;2.42;;;;;;;;;;4950788;28;20381;-48
2021/11/29 09:09:05;;;;;;;2.30;1.90;;;;;;;;;;4949773;29;20385;-47
2021/11/29 09:11:32;;;;;;;2.77;2.20;;;;;;;;;;4950986;28;20386;-50
2021/11/29 09:13:58;;;;;;;3.28;2.03;;;;;;;;;;4950785;29;20385;-47
2021/11/29 09:16:25;;;;;;;2.88;2.13;;;;;;;;;;4954113;28;20443;-46
2021/11/29 09:18:51;;;;;;;3.35;2.42;;;;;;;;;;4941190;28;20504;-47
2021/11/29 09:21:19;;;;;;;3.03;2.20;;;;;;;;;;4969241;28;20405;-47
2021/11/29 09:23:46;;;;;;;2.60;2.20;;;;;;;;;;4951855;29;20378;-51
2021/11/29 09:26:12;;;;;;;3.35;2.30;;;;;;;;;;4958679;28;20382;-47
2021/11/29 09:28:38;;;;;;;3.47;2.20;;;;;;;;;;4952710;28;20382;-48
2021/11/29 09:31:05;;;;;;;2.85;2.22;;;;;;;;;;4961233;28;20441;-48
2021/11/29 09:33:31;;;;;;;3.05;2.08;;;;;;;;;;4940210;29;20427;-47
2021/11/29 09:35:57;;;;;;;3.20;2.20;;;;;;;;;;4951449;28;20404;-50
2021/11/29 09:38:23;;;;;;;2.92;2.20;;;;;;;;;;4952162;29;20461;-47
2021/11/29 09:40:50;;;;;;;3.38;2.20;;;;;;;;;;4952948;28;20374;-48
2021/11/29 09:43:17;;;;;;;3.15;2.45;;;;;;;;;;4962489;28;20464;-46
2021/11/29 09:45:45;;;;;;;3.13;2.20;;;;;;;;;;4951200;29;20449;-46
2021/11/29 09:48:11;;;;;;;2.38;2.10;;;;;;;;;;4954754;28;20390;-47
2021/11/29 09:50:39;;;;;;;3.17;2.30;;;;;;;;;;4957817;28;20398;-48
2021/11/29 09:53:06;;;;;;;3.00;2.35;;;;;;;;;;4956460;28;20427;-49
2021/11/29 09:55:32;;;;;;;2.88;2.20;;;;;;;;;;4957459;28;20894;-50
2021/11/29 09:57:59;;;;;;;3.28;2.40;;;;;;;;;;4950807;28;20933;-52
2021/11/29 10:00:27;;;;;;;3.28;2.33;;;;;;;;;;4955238;28;20382;-52
2021/11/29 10:02:56;;;;;;;3.75;2.40;;;;;;;;;;4958626;28;20382;-50
2021/11/29 10:05:24;;;;;;;2.83;2.42;;;;;;;;;;4956871;28;20390;-52
2021/11/29 10:07:51;;;;;;;3.00;2.15;;;;;;;;;;4961824;28;20380;-51
2021/11/29 10:10:23;;;;;;;3.90;2.60;;;;;;;;;;4954666;28;20913;-51
2021/11/29 10:12:50;;;;;;;3.88;2.40;;;;;;;;;;4954432;28;20422;-50
2021/11/29 10:15:25;;;;;;;3.08;2.40;;;;;;;;;;4954995;29;20414;-47
2021/11/29 10:18:00;;;;;;;3.40;2.53;;;;;;;;;;4955786;29;20402;-54
2021/11/29 10:20:31;;;;;;;3.50;2.40;;;;;;;;;;4968556;28;20454;-53
2021/11/29 10:23:05;;;;;;;3.40;2.40;;;;;;;;;;4956054;29;20397;-48
2021/11/29 10:25:31;;;;;;;3.58;2.50;;;;;;;;;;4955378;29;20937;-48
2021/11/29 10:27:57;;;;;;;2.75;2.17;;;;;;;;;;4954310;29;20390;-43
2021/11/29 10:30:25;;;;;;;3.65;2.38;;;;;;;;;;4955470;29;20382;-45
2021/11/29 10:32:52;;;;;;;3.22;2.05;;;;;;;;;;4953914;29;20852;-46
2021/11/29 10:35:36;;;;;;;2.92;2.20;;;;;;;;;;4955836;28;20402;-49
2021/11/29 10:38:04;;;;;;;2.83;2.33;;;;;;;;;;4954858;29;20425;-48
2021/11/29 10:40:31;;;;;;;3.05;2.35;;;;;;;;;;4957585;28;20390;-50
2021/11/29 10:43:04;;;;;;;3.22;2.38;;;;;;;;;;4970841;28;20463;-50
2021/11/29 10:45:30;;;;;;;3.38;2.40;;;;;;;;;;4942707;29;20381;-47
2021/11/29 10:47:56;;;;;;;3.57;2.30;;;;;;;;;;4970046;28;20382;-52
2021/11/29 10:50:27;;;;;;;3.17;2.22;;;;;;;;;;4954074;28;20426;-45
2021/11/29 10:53:07;;;;;;;3.57;2.27;;;;;;;;;;4956689;28;20487;-50
2021/11/29 10:55:53;;;;;;;3.20;2.35;;;;;;;;;;4955189;29;20968;-51
2021/11/29 10:58:27;;;;;;;3.17;2.20;;;;;;;;;;4955549;29;20378;-48
2021/11/29 11:00:58;;;;;;;3.85;2.35;;;;;;;;;;4956919;28;20385;-47
2021/11/29 11:03:25;;;;;;;3.53;2.33;;;;;;;;;;4971019;28;20732;-47
2021/11/29 11:06:05;;;;;;;3.23;2.23;;;;;;;;;;4955245;29;20374;-49
2021/11/29 11:08:35;;;;;;;3.67;2.30;;;;;;;;;;4955697;28;20378;-50
2021/11/29 11:11:21;;;;;;;3.35;2.38;;;;;;;;;;4954074;28;20382;-46
2021/11/29 11:13:57;;;;;;;3.17;2.47;;;;;;;;;;4950658;28;20437;-49
2021/11/29 11:16:42;;;;;;;2.95;2.28;;;;;;;;;;4953150;29;20446;-46
2021/11/29 11:19:20;;;;;;;2.70;2.20;;;;;;;;;;4954558;29;20806;-47
2021/11/29 11:21:46;;;;;;;3.15;2.13;;;;;;;;;;4953397;29;20402;-46
2021/11/29 11:24:20;;;;;;;3.50;2.37;;;;;;;;;;4939876;29;20477;-48
2021/11/29 11:26:47;;;;;;;3.80;2.13;;;;;;;;;;4947519;29;20427;-48
2021/11/29 11:29:13;;;;;;;3.72;2.25;;;;;;;;;;4953585;28;20412;-49
2021/11/29 11:31:39;;;;;;;3.35;2.45;;;;;;;;;;4949051;28;20414;-49
2021/11/29 11:34:06;;;;;;;2.50;2.08;;;;;;;;;;4952659;29;20402;-45
2021/11/29 11:36:32;;;;;;;3.50;2.40;;;;;;;;;;4952734;29;20387;-49
2021/11/29 11:39:05;;;;;;;3.45;2.53;;;;;;;;;;4954183;28;20378;-50
2021/11/29 11:41:33;;;;;;;3.42;2.38;;;;;;;;;;4950932;28;20390;-46
2021/11/29 11:44:00;;;;;;;3.50;2.42;;;;;;;;;;4953460;28;20400;-47
2021/11/29 11:46:27;;;;;;;3.50;2.22;;;;;;;;;;4953177;29;20374;-47
2021/11/29 11:48:54;;;;;;;3.38;2.42;;;;;;;;;;4953446;28;20386;-47
2021/11/29 11:51:21;;;;;;;2.87;2.53;;;;;;;;;;4952497;29;20386;-47
2021/11/29 11:53:49;;;;;;;3.95;2.40;;;;;;;;;;4953094;29;20418;-46
2021/11/29 11:56:18;;;;;;;2.70;2.20;;;;;;;;;;4950636;28;20386;-47
2021/11/29 11:58:56;;;;;;;3.40;2.30;;;;;;;;;;4950420;29;20469;-45
2021/11/29 12:01:27;;;;;;;2.83;2.22;;;;;;;;;;4945773;29;20429;-45
2021/11/29 12:03:53;;;;;;;2.88;2.15;;;;;;;;;;4953872;29;20420;-46
2021/11/29 12:06:33;;;;;;;3.17;2.10;;;;;;;;;;4961410;28;20753;-46
2021/11/29 12:09:03;;;;;;;3.10;2.20;;;;;;;;;;4950508;28;20382;-46
2021/11/29 12:11:34;;;;;;;3.53;2.40;;;;;;;;;;4953349;28;20892;-48
2021/11/29 12:14:00;;;;;;;2.72;2.10;;;;;;;;;;4953805;28;20430;-47
2021/11/29 12:16:33;;;;;;;2.83;2.05;;;;;;;;;;4953737;29;20430;-48
2021/11/29 12:19:02;;;;;;;3.28;2.25;;;;;;;;;;4951797;28;20453;-47
2021/11/29 12:21:41;;;;;;;3.28;2.30;;;;;;;;;;4953284;28;20382;-45
2021/11/29 12:24:13;;;;;;;3.15;2.20;;;;;;;;;;4952523;29;20732;-50
2021/11/29 12:26:42;;;;;;;3.08;2.03;;;;;;;;;;4953534;28;20747;-51
2021/11/29 12:29:31;;;;;;;2.83;2.10;;;;;;;;;;4952160;29;20390;-45
2021/11/29 12:32:03;;;;;;;4.53;2.15;;;;;;;;;;4952241;29;20429;-43
2021/11/29 12:34:49;;;;;;;2.88;1.90;;;;;;;;;;4953846;28;20742;-43
2021/11/29 12:37:15;;;;;;;4.10;2.07;;;;;;;;;;4955679;28;20407;-47
2021/11/29 12:39:47;;;;;;;3.10;2.10;;;;;;;;;;4946409;29;20429;-44
2021/11/29 12:42:19;;;;;;;2.78;1.90;;;;;;;;;;4953420;28;20863;-44
2021/11/29 12:44:45;;;;;;;3.55;1.90;;;;;;;;;;4952136;29;20438;-45
2021/11/29 12:47:28;;;;;;;2.78;1.80;;;;;;;;;;4953579;28;20370;-42
2021/11/29 12:49:58;;;;;;;4.28;2.00;;;;;;;;;;4964745;28;20398;-45
2021/11/29 12:52:27;;;;;;;3.28;2.03;;;;;;;;;;4967807;28;20882;-43
2021/11/29 12:54:55;;;;;;;3.53;2.10;;;;;;;;;;4952897;28;20393;-44
2021/11/29 12:57:39;;;;;;;2.47;1.85;;;;;;;;;;4968079;28;20390;-45
2021/11/29 13:00:09;;;;;;;2.53;1.70;;;;;;;;;;4941891;29;20905;-44
2021/11/29 13:02:38;;;;;;;2.80;1.90;;;;;;;;;;4953340;29;20381;-44
2021/11/29 13:05:23;;;;;;;2.95;1.80;;;;;;;;;;4951359;29;20914;-45
2021/11/29 13:08:06;;;;;;;2.60;1.80;;;;;;;;;;4951734;29;20405;-44
2021/11/29 13:10:45;;;;;;;2.87;2.00;;;;;;;;;;4959193;28;20413;-44
2021/11/29 13:13:28;;;;;;;2.30;1.60;;;;;;;;;;4947463;29;20452;-44
2021/11/29 13:15:55;;;;;;;3.08;1.65;;;;;;;;;;4951740;29;20398;-43
2021/11/29 13:18:40;;;;;;;2.67;1.67;;;;;;;;;;4951168;29;20937;-47
2021/11/29 13:21:06;;;;;;;3.67;1.80;;;;;;;;;;4944630;29;20475;-46
2021/11/29 13:23:35;;;;;;;2.63;1.80;;;;;;;;;;4950646;29;20906;-47
2021/11/29 13:26:07;;;;;;;3.53;1.92;;;;;;;;;;4952845;28;20392;-43
2021/11/29 13:28:33;;;;;;;4.00;1.80;;;;;;;;;;4952039;28;20889;-50
2021/11/29 13:30:59;;;;;;;2.90;1.70;;;;;;;;;;4950926;28;20433;-49
2021/11/29 13:33:25;;;;;;;2.70;1.60;;;;;;;;;;4932266;29;20468;-48
2021/11/29 13:35:52;;;;;;;2.90;1.70;;;;;;;;;;4947190;29;20440;-51
2021/11/29 13:38:24;;;;;;;2.75;1.70;;;;;;;;;;4956253;29;20382;-43
2021/11/29 13:40:50;;;;;;;3.22;1.80;;;;;;;;;;4952645;28;20421;-45
2021/11/29 13:43:24;;;;;;;3.20;1.77;;;;;;;;;;4953858;28;20398;-44
2021/11/29 13:45:50;;;;;;;2.85;1.75;;;;;;;;;;4962315;28;20444;-45
2021/11/29 13:48:16;;;;;;;3.45;1.50;;;;;;;;;;4955362;29;20384;-45
2021/11/29 13:50:52;;;;;;;3.60;1.50;;;;;;;;;;4959798;28;20390;-44
2021/11/29 13:53:22;;;;;;;2.80;1.50;;;;;;;;;;4955216;28;20526;-52
2021/11/29 13:55:57;;;;;;;2.50;1.50;;;;;;;;;;4953613;29;20448;-43
2021/11/29 13:58:26;;;;;;;2.10;1.40;;;;;;;;;;4956431;28;20412;-43
2021/11/29 14:00:52;;;;;;;2.20;1.50;;;;;;;;;;4955907;28;20378;-47
2021/11/29 14:03:21;;;;;;;3.50;1.70;;;;;;;;;;4955749;29;20476;-44
2021/11/29 14:05:50;;;;;;;2.38;1.38;;;;;;;;;;4954963;29;20445;-44
2021/11/29 14:08:20;;;;;;;2.33;1.35;;;;;;;;;;4955351;28;20389;-47
2021/11/29 14:10:59;;;;;;;3.45;1.50;;;;;;;;;;4954934;29;20819;-49
2021/11/29 14:13:33;;;;;;;2.67;1.40;;;;;;;;;;4953865;28;20422;-42
2021/11/29 14:16:07;;;;;;;3.03;1.70;;;;;;;;;;4952027;29;20472;-47
2021/11/29 14:18:42;;;;;;;2.30;1.30;;;;;;;;;;4970203;28;20457;-47
2021/11/29 14:21:16;;;;;;;3.03;1.60;;;;;;;;;;4955347;28;20401;-47
2021/11/29 14:23:48;;;;;;;2.50;1.35;;;;;;;;;;4957942;28;20412;-44
2021/11/29 14:26:35;;;;;;;2.10;1.50;;;;;;;;;;4954427;28;20383;-44
2021/11/29 14:29:07;;;;;;;2.85;1.48;;;;;;;;;;4944543;29;20457;-43
2021/11/29 14:31:33;;;;;;;2.50;1.42;;;;;;;;;;4968026;28;20390;-45
2021/11/29 14:33:59;;;;;;;2.00;1.40;;;;;;;;;;4955529;28;20426;-47
2021/11/29 14:36:37;;;;;;;3.10;1.40;;;;;;;;;;4954154;29;20895;-44
2021/11/29 14:39:07;;;;;;;1.95;1.30;;;;;;;;;;4960750;28;20908;-48
2021/11/29 14:41:56;;;;;;;2.10;1.30;;;;;;;;;;4953329;29;20488;-45
2021/11/29 14:44:25;;;;;;;2.20;1.50;;;;;;;;;;4966107;28;20429;-45
2021/11/29 14:46:55;;;;;;;1.95;1.27;;;;;;;;;;4955426;29;20465;-49
2021/11/29 14:49:23;;;;;;;2.50;1.50;;;;;;;;;;4954973;29;20394;-43
2021/11/29 14:51:57;;;;;;;2.38;1.48;;;;;;;;;;4955310;29;20401;-42
2021/11/29 14:54:29;;;;;;;2.20;1.42;;;;;;;;;;4954726;28;20389;-42
2021/11/29 14:56:55;;;;;;;1.90;1.30;;;;;;;;;;4953264;28;20460;-44
2021/11/29 14:59:26;;;;;;;2.10;1.40;;;;;;;;;;4954596;29;20417;-43
2021/11/29 15:01:56;;;;;;;2.60;1.50;;;;;;;;;;4955321;28;20460;-43
2021/11/29 15:04:25;;;;;;;3.13;1.60;;;;;;;;;;4958795;28;20470;-45
2021/11/29 15:06:56;;;;;;;2.33;1.60;;;;;;;;;;4952828;29;20422;-46
2021/11/29 15:09:34;;;;;;;2.45;1.40;;;;;;;;;;4954649;29;20890;-45
2021/11/29 15:12:00;;;;;;;2.63;1.30;;;;;;;;;;4939098;29;20400;-44
2021/11/29 15:14:34;;;;;;;2.90;1.60;;;;;;;;;;4964909;28;20488;-44
2021/11/29 15:17:13;;;;;;;3.13;1.50;;;;;;;;;;4960526;28;20916;-45
2021/11/29 15:19:39;;;;;;;3.00;1.50;;;;;;;;;;4955024;29;20413;-45
2021/11/29 15:22:06;;;;;;;3.00;1.50;;;;;;;;;;4954593;29;20410;-45
2021/11/29 15:24:33;;;;;;;2.35;1.58;;;;;;;;;;4953885;29;20882;-45
2021/11/29 15:27:17;;;;;;;2.37;1.57;;;;;;;;;;4955861;28;20927;-44
2021/11/29 15:29:44;;;;;;;2.10;1.38;;;;;;;;;;4967927;28;20390;-46
2021/11/29 15:32:20;;;;;;;2.67;1.40;;;;;;;;;;4953929;28;20423;-46
2021/11/29 15:35:05;;;;;;;2.60;1.58;;;;;;;;;;4952363;29;20421;-44
2021/11/29 15:37:35;;;;;;;2.60;1.70;;;;;;;;;;4954225;29;20445;-42
2021/11/29 15:40:20;;;;;;;2.85;1.70;;;;;;;;;;4962498;28;20455;-46
2021/11/29 15:42:46;;;;;;;4.50;2.00;;;;;;;;;;4949476;29;20389;-47
2021/11/29 15:45:16;;;;;;;3.70;1.90;;;;;;;;;;4955815;29;20429;-45
2021/11/29 15:47:46;;;;;;;2.37;1.60;;;;;;;;;;4957556;28;20806;-47
2021/11/29 15:50:12;;;;;;;2.30;1.55;;;;;;;;;;4953903;28;20509;-45
2021/11/29 15:52:41;;;;;;;2.92;1.65;;;;;;;;;;4956040;28;20422;-47
2021/11/29 15:55:10;;;;;;;2.97;1.80;;;;;;;;;;4960492;28;20835;-44
2021/11/29 15:57:36;;;;;;;3.00;1.70;;;;;;;;;;4951847;28;20399;-47
2021/11/29 16:00:04;;;;;;;3.00;1.60;;;;;;;;;;4953663;29;20398;-46
2021/11/29 16:02:30;;;;;;;3.35;1.52;;;;;;;;;;4953685;29;20390;-46
2021/11/29 16:04:59;;;;;;;2.92;1.60;;;;;;;;;;4952232;29;20398;-46
2021/11/29 16:07:27;;;;;;;2.78;1.60;;;;;;;;;;4953430;29;20465;-48
2021/11/29 16:09:56;;;;;;;4.10;2.83;;;;;;;;;;4952120;29;20427;-47
2021/11/29 16:12:22;;;;;;;3.40;1.87;;;;;;;;;;4953687;29;20417;-43
2021/11/29 16:14:50;;;;;;;3.90;2.17;;;;;;;;;;4953705;29;20465;-42
2021/11/29 16:17:19;;;;;;;3.90;2.15;;;;;;;;;;4953933;28;20386;-45
2021/11/29 16:19:48;;;;;;;3.65;2.00;;;;;;;;;;4949294;28;20415;-42
2021/11/29 16:22:14;;;;;;;5.00;1.95;;;;;;;;;;4949464;29;20400;-44
2021/11/29 16:24:40;;;;;;;5.05;2.20;;;;;;;;;;4951591;29;20416;-42
2021/11/29 16:27:06;;;;;;;4.25;2.05;;;;;;;;;;4953828;29;20453;-42
2021/11/29 16:29:34;;;;;;;3.55;2.13;;;;;;;;;;4951810;29;20488;-47
2021/11/29 16:32:03;;;;;;;2.42;1.80;;;;;;;;;;4953912;28;20378;-43
2021/11/29 16:34:29;;;;;;;3.20;1.98;;;;;;;;;;4951808;29;20390;-43
2021/11/29 16:36:56;;;;;;;3.10;1.70;;;;;;;;;;4953485;29;20374;-46
2021/11/29 16:39:24;;;;;;;3.50;1.98;;;;;;;;;;4950694;29;20394;-45
2021/11/29 16:41:52;;;;;;;5.53;3.10;;;;;;;;;;4950816;29;20390;-46
2021/11/29 16:44:19;;;;;;;4.57;2.97;;;;;;;;;;4951699;28;20406;-45
2021/11/29 16:46:45;;;;;;;5.38;3.00;;;;;;;;;;4946100;29;20395;-45
2021/11/29 16:49:11;;;;;;;5.65;3.00;;;;;;;;;;4960367;28;20393;-48
2021/11/29 16:51:37;;;;;;;4.80;3.03;;;;;;;;;;4951551;29;20778;-46
2021/11/29 16:54:04;;;;;;;6.88;3.50;;;;;;;;;;4951602;29;20416;-46
2021/11/29 16:56:35;;;;;;;6.00;3.40;;;;;;;;;;4952064;28;20917;-47
2021/11/29 16:59:01;;;;;;;5.95;3.30;;;;;;;;;;4950840;29;20401;-46
2021/11/29 17:01:31;;;;;;;4.90;3.28;;;;;;;;;;4949601;29;20386;-44
2021/11/29 17:04:02;;;;;;;5.93;3.85;;;;;;;;;;4948564;29;20445;-45
2021/11/29 17:06:28;;;;;;;7.75;4.50;;;;;;;;;;4951895;28;20401;-44
2021/11/29 17:08:54;;;;;;;6.78;4.25;;;;;;;;;;4950969;28;20452;-44
2021/11/29 17:11:22;;;;;;;6.15;4.20;;;;;;;;;;4962830;28;20427;-44
2021/11/29 17:13:48;;;;;;;6.32;4.38;;;;;;;;;;4963159;28;20453;-44
2021/11/29 17:16:14;;;;;;;8.75;4.47;;;;;;;;;;4950365;28;20486;-44
2021/11/29 17:18:45;;;;;;;7.13;4.88;;;;;;;;;;4952230;29;20436;-44
2021/11/29 17:21:11;;;;;;;6.55;4.50;;;;;;;;;;4946256;29;20953;-45
2021/11/29 17:23:40;;;;;;;7.00;4.40;;;;;;;;;;4949251;28;20402;-47
2021/11/29 17:26:06;;;;;;;7.28;4.43;;;;;;;;;;4947900;28;20449;-48
2021/11/29 17:28:33;;;;;;;6.97;4.20;;;;;;;;;;4951416;29;20401;-47
2021/11/29 17:31:01;;;;;;;7.25;4.47;;;;;;;;;;4952198;28;20409;-50
2021/11/29 17:33:31;;;;;;;6.50;3.75;;;;;;;;;;4935904;29;20437;-49
2021/11/29 17:35:57;;;;;;;6.25;4.22;;;;;;;;;;4951250;28;20485;-48
2021/11/29 17:38:23;;;;;;;6.97;4.20;;;;;;;;;;4952011;29;20406;-48
2021/11/29 17:40:50;;;;;;;7.57;4.43;;;;;;;;;;4950734;29;20413;-46
2021/11/29 17:43:16;;;;;;;7.28;4.03;;;;;;;;;;4952256;28;20378;-46
2021/11/29 17:45:44;;;;;;;6.68;3.75;;;;;;;;;;4951253;29;20479;-46
2021/11/29 17:48:11;;;;;;;7.30;4.35;;;;;;;;;;4951664;28;20441;-50
2021/11/29 17:50:37;;;;;;;6.63;4.28;;;;;;;;;;4955008;28;20415;-50
2021/11/29 17:53:04;;;;;;;6.72;4.40;;;;;;;;;;4957318;28;20454;-47
2021/11/29 17:55:30;;;;;;;7.22;4.38;;;;;;;;;;4956888;28;20392;-46
2021/11/29 17:57:59;;;;;;;7.13;4.20;;;;;;;;;;4959891;28;20382;-46
2021/11/29 18:00:26;;;;;;;7.63;4.35;;;;;;;;;;4960876;28;20407;-45
2021/11/29 18:02:52;;;;;;;6.70;3.97;;;;;;;;;;4960111;28;20469;-47
2021/11/29 18:05:19;;;;;;;6.72;4.53;;;;;;;;;;4951252;29;20937;-47
2021/11/29 18:13:05;;;;;;;7.83;4.20;;;;;;;;;;4952473;28;20433;-48
2021/11/29 18:15:31;;;;;;;6.38;4.35;;;;;;;;;;4954230;28;20477;-50
2021/11/29 18:17:58;;;;;;;6.32;4.65;;;;;;;;;;4950985;29;20887;-42
2021/11/29 18:20:25;;;;;;;7.85;4.60;;;;;;;;;;4963262;28;20499;-48
2021/11/29 18:22:54;;;;;;;8.30;4.90;;;;;;;;;;4955570;28;20445;-48
2021/11/29 18:25:20;;;;;;;7.63;4.80;;;;;;;;;;4943461;29;20411;-43
2021/11/29 18:27:50;;;;;;;9.80;5.00;;;;;;;;;;4954572;28;20386;-45
2021/11/29 18:30:18;;;;;;;8.40;5.25;;;;;;;;;;4954290;29;20401;-45
2021/11/29 18:32:47;;;;;;;8.55;5.32;;;;;;;;;;4954080;28;20425;-46
2021/11/29 18:35:15;;;;;;;7.38;5.25;;;;;;;;;;4954978;29;20421;-45
2021/11/29 18:37:50;;;;;;;8.05;5.30;;;;;;;;;;4955672;28;20380;-44
2021/11/29 18:40:17;;;;;;;8.32;5.57;;;;;;;;;;4951761;29;20398;-45
2021/11/29 18:42:43;;;;;;;9.40;5.60;;;;;;;;;;4955431;29;20392;-44
2021/11/29 18:45:10;;;;;;;8.93;5.60;;;;;;;;;;4954985;29;20386;-43
2021/11/29 18:47:42;;;;;;;10.70;6.17;;;;;;;;;;4955530;29;20461;-43
2021/11/29 18:50:10;;;;;;;7.97;5.80;;;;;;;;;;4954602;29;20612;-47
2021/11/29 18:52:38;;;;;;;10.80;6.43;;;;;;;;;;4955306;28;20868;-45
2021/11/29 18:55:05;;;;;;;11.98;9.60;;;;;;;;;;4955109;29;20465;-46
2021/11/29 18:57:37;;;;;;;12.20;9.47;;;;;;;;;;4955294;29;20402;-46
2021/11/29 19:00:04;;;;;;;12.13;8.95;;;;;;;;;;4954515;28;20452;-44
2021/11/29 19:02:30;;;;;;;11.35;8.98;;;;;;;;;;4942738;29;20398;-44
2021/11/29 19:04:56;;;;;;;11.32;8.90;;;;;;;;;;4955330;29;20393;-46
2021/11/29 19:07:23;;;;;;;12.45;9.35;;;;;;;;;;4955550;29;20901;-43
2021/11/29 19:09:49;;;;;;;11.75;9.13;;;;;;;;;;4954702;28;20449;-44
2021/11/29 19:12:18;;;;;;;10.70;8.73;;;;;;;;;;4954939;29;20417;-45
2021/11/29 19:14:44;;;;;;;11.43;9.05;;;;;;;;;;4953975;28;20433;-46
2021/11/29 19:17:11;;;;;;;12.20;9.40;;;;;;;;;;4954635;29;20378;-44
2021/11/29 19:19:40;;;;;;;12.40;10.10;;;;;;;;;;4950281;29;20422;-46
2021/11/29 19:22:06;;;;;;;13.80;10.35;;;;;;;;;;4953546;28;20405;-46
2021/11/29 19:24:35;;;;;;;14.00;11.13;;;;;;;;;;4945930;28;20402;-46
2021/11/29 19:27:01;;;;;;;14.48;11.52;;;;;;;;;;4954037;29;20390;-45
2021/11/29 19:29:30;;;;;;;14.77;11.70;;;;;;;;;;4954004;28;20488;-46
2021/11/29 19:31:59;;;;;;;16.02;12.50;;;;;;;;;;4953186;28;20390;-47
2021/11/29 19:34:25;;;;;;;16.20;12.40;;;;;;;;;;4954536;28;20400;-45
2021/11/29 19:36:54;;;;;;;17.25;12.93;;;;;;;;;;4953694;29;20398;-45
2021/11/29 19:39:21;;;;;;;16.63;12.55;;;;;;;;;;4953053;29;20540;-45
2021/11/29 19:41:47;;;;;;;17.65;13.27;;;;;;;;;;4954823;28;20765;-46
2021/11/29 19:44:16;;;;;;;17.05;13.55;;;;;;;;;;4954221;29;20772;-46
2021/11/29 19:46:43;;;;;;;17.10;13.60;;;;;;;;;;4954690;29;20413;-45
2021/11/29 19:49:10;;;;;;;16.25;12.95;;;;;;;;;;4954011;28;20394;-47
2021/11/29 19:51:41;;;;;;;15.30;12.23;;;;;;;;;;4953072;29;20910;-45
2021/11/29 19:54:10;;;;;;;15.82;12.60;;;;;;;;;;4941575;28;20425;-44
2021/11/29 19:56:37;;;;;;;15.82;12.45;;;;;;;;;;4953782;29;20756;-45
2021/11/29 19:59:03;;;;;;;15.00;12.00;;;;;;;;;;4953061;29;20858;-46
2021/11/29 20:01:32;;;;;;;15.37;12.77;;;;;;;;;;4953810;28;20421;-47
2021/11/29 20:04:01;;;;;;;15.02;12.18;;;;;;;;;;4953589;28;20466;-45
2021/11/29 20:06:29;;;;;;;15.98;12.35;;;;;;;;;;4952791;29;20799;-45
2021/11/29 20:08:56;;;;;;;16.23;12.00;;;;;;;;;;4953199;28;20401;-47
2021/11/29 20:11:22;;;;;;;16.63;12.07;;;;;;;;;;4951930;29;20521;-47
2021/11/29 20:14:04;;;;;;;15.35;11.93;;;;;;;;;;4953689;29;20452;-44
2021/11/29 20:16:31;;;;;;;14.75;12.43;;;;;;;;;;4936713;29;20502;-45
2021/11/29 20:19:03;;;;;;;15.55;11.98;;;;;;;;;;4953088;28;20913;-44
2021/11/29 20:21:33;;;;;;;15.90;11.75;;;;;;;;;;4953653;28;20398;-45
2021/11/29 20:24:01;;;;;;;14.27;11.90;;;;;;;;;;4952904;29;20398;-48
2021/11/29 20:26:32;;;;;;;15.10;11.05;;;;;;;;;;4951574;29;20445;-45
2021/11/29 20:28:58;;;;;;;13.77;11.15;;;;;;;;;;4953676;29;20382;-47
2021/11/29 20:31:25;;;;;;;15.35;11.20;;;;;;;;;;4951444;29;20505;-44
2021/11/29 20:33:51;;;;;;;14.00;10.55;;;;;;;;;;4953341;29;20422;-45
2021/11/29 20:36:20;;;;;;;12.80;10.43;;;;;;;;;;4953334;28;20390;-45
2021/11/29 20:38:47;;;;;;;14.50;10.90;;;;;;;;;;4953614;28;20456;-46
2021/11/29 20:41:13;;;;;;;12.55;9.63;;;;;;;;;;4952793;28;20750;-44
2021/11/29 20:43:42;;;;;;;12.27;9.68;;;;;;;;;;4953207;28;20382;-44
2021/11/29 20:46:08;;;;;;;12.23;9.85;;;;;;;;;;4950699;28;20413;-45
2021/11/29 20:48:35;;;;;;;12.88;9.60;;;;;;;;;;4951666;29;20429;-46
2021/11/29 20:51:01;;;;;;;13.77;9.32;;;;;;;;;;4952491;28;20394;-45
2021/11/29 20:53:34;;;;;;;11.57;9.40;;;;;;;;;;4950734;29;20413;-45
2021/11/29 20:56:00;;;;;;;11.00;9.63;;;;;;;;;;4951133;28;20397;-45
2021/11/29 20:58:26;;;;;;;10.80;9.05;;;;;;;;;;4952202;29;20948;-45
2021/11/29 21:00:53;;;;;;;11.47;8.40;;;;;;;;;;4952471;29;20405;-45
2021/11/29 21:03:19;;;;;;;10.95;8.70;;;;;;;;;;4952401;29;20390;-45
2021/11/29 21:05:45;;;;;;;11.05;8.70;;;;;;;;;;4952788;29;20494;-45
2021/11/29 21:08:11;;;;;;;11.98;8.50;;;;;;;;;;4951273;29;20397;-45
2021/11/29 21:10:38;;;;;;;10.93;8.52;;;;;;;;;;4949704;28;20452;-45
2021/11/29 21:13:04;;;;;;;11.15;8.32;;;;;;;;;;4944516;28;20481;-45
2021/11/29 21:15:30;;;;;;;10.47;7.70;;;;;;;;;;4951352;29;20390;-45
2021/11/29 21:17:56;;;;;;;9.48;7.80;;;;;;;;;;4943391;29;20771;-47
2021/11/29 21:20:22;;;;;;;10.20;7.95;;;;;;;;;;4951317;29;20409;-44
2021/11/29 21:22:48;;;;;;;10.45;8.20;;;;;;;;;;4952374;29;20440;-45
2021/11/29 21:25:15;;;;;;;9.70;7.55;;;;;;;;;;4953008;29;20740;-44
2021/11/29 21:27:44;;;;;;;9.85;7.70;;;;;;;;;;4940914;29;20446;-46
2021/11/29 21:30:12;;;;;;;10.87;7.70;;;;;;;;;;4952495;29;20446;-44
2021/11/29 21:32:41;;;;;;;9.93;7.25;;;;;;;;;;4952627;29;20436;-44
2021/11/29 21:35:10;;;;;;;9.82;7.60;;;;;;;;;;4952504;29;20464;-44
2021/11/29 21:37:41;;;;;;;9.37;6.90;;;;;;;;;;4953224;29;20378;-45
2021/11/29 21:40:13;;;;;;;9.50;7.40;;;;;;;;;;4950947;28;20405;-45
2021/11/29 21:42:44;;;;;;;9.10;7.13;;;;;;;;;;4952000;29;20431;-45
2021/11/29 21:45:10;;;;;;;8.90;7.05;;;;;;;;;;4951824;29;20390;-43
2021/11/29 21:47:40;;;;;;;8.98;7.35;;;;;;;;;;4952337;29;20382;-44
2021/11/29 21:50:09;;;;;;;8.95;6.60;;;;;;;;;;4951613;29;20460;-45
2021/11/29 21:52:41;;;;;;;9.02;7.05;;;;;;;;;;4952878;28;20406;-46
2021/11/29 21:55:14;;;;;;;8.83;6.90;;;;;;;;;;4952144;28;20430;-44
2021/11/29 21:57:40;;;;;;;8.48;6.82;;;;;;;;;;4956367;28;20499;-46
2021/11/29 22:00:10;;;;;;;9.23;7.20;;;;;;;;;;4955794;29;20488;-45
2021/11/29 22:02:41;;;;;;;9.38;6.60;;;;;;;;;;4956071;29;20413;-45
2021/11/29 22:05:10;;;;;;;9.15;6.93;;;;;;;;;;4953410;29;20402;-46
2021/11/29 22:07:36;;;;;;;8.70;6.70;;;;;;;;;;4949115;29;20378;-46
2021/11/29 22:10:04;;;;;;;7.68;6.30;;;;;;;;;;4955353;29;20429;-46
2021/11/29 22:12:35;;;;;;;7.72;5.53;;;;;;;;;;4954985;29;20422;-45
2021/11/29 22:15:04;;;;;;;8.50;6.18;;;;;;;;;;4956193;28;20415;-45
2021/11/29 22:17:35;;;;;;;7.65;5.80;;;;;;;;;;4955685;29;20425;-45
2021/11/29 22:20:01;;;;;;;8.07;5.53;;;;;;;;;;4955393;28;20425;-49
2021/11/29 22:22:27;;;;;;;8.45;5.32;;;;;;;;;;4951981;28;20451;-46
2021/11/29 22:24:54;;;;;;;7.57;4.97;;;;;;;;;;4952021;29;20387;-46
2021/11/29 22:27:24;;;;;;;9.00;5.10;;;;;;;;;;4955900;29;20378;-48
2021/11/29 22:29:53;;;;;;;7.53;4.78;;;;;;;;;;4955367;28;20556;-43
2021/11/29 22:32:23;;;;;;;7.23;5.10;;;;;;;;;;4954467;29;20398;-44
2021/11/29 22:34:49;;;;;;;6.00;4.78;;;;;;;;;;4954693;28;20408;-44
2021/11/29 22:37:15;;;;;;;7.15;4.60;;;;;;;;;;4955569;29;20767;-44
2021/11/29 22:39:42;;;;;;;6.57;4.80;;;;;;;;;;4955711;29;20385;-43
2021/11/29 22:42:11;;;;;;;7.63;5.20;;;;;;;;;;4954489;29;20389;-43
2021/11/29 22:44:37;;;;;;;6.78;4.70;;;;;;;;;;4968468;28;20421;-45
2021/11/29 22:47:03;;;;;;;7.00;5.10;;;;;;;;;;4955440;29;20413;-42
2021/11/29 22:49:29;;;;;;;7.45;4.80;;;;;;;;;;4954013;28;20461;-42
2021/11/29 22:51:59;;;;;;;6.95;4.80;;;;;;;;;;4955388;29;20401;-43
2021/11/29 22:54:25;;;;;;;7.10;4.68;;;;;;;;;;4953802;29;20414;-46
2021/11/29 22:56:52;;;;;;;7.03;4.63;;;;;;;;;;4955476;29;20393;-44
2021/11/29 22:59:21;;;;;;;7.07;4.47;;;;;;;;;;4954845;28;20378;-44
